Time;durP1;ratioP1;P1;durP2;ratioP2;P2;SDS_P1;SDS_P2;PMS_P1;PMS_P2;Temp;Humidity;BMP_temperature;BMP_pressure;BME280_temperature;BME280_humidity;BME280_pressure;Samples;Min_cycle;Max_cycle;Signal;HPM_P1;HPM_P2
2022/09/27 00:01:44;;;;;;;2.83;1.00;;;;;;;10.01;100.00;98147.22;5002205;28;20241;-72
2022/09/27 00:04:11;;;;;;;2.00;1.10;;;;;;;9.91;100.00;98146.31;4995778;28;20187;-75
2022/09/27 00:06:36;;;;;;;1.00;1.00;;;;;;;9.90;100.00;98149.84;5006111;28;20657;-71
2022/09/27 00:09:02;;;;;;;0.80;0.80;;;;;;;10.02;100.00;98147.06;5008867;28;20258;-71
2022/09/27 00:11:36;;;;;;;1.00;1.00;;;;;;;10.06;100.00;98142.50;5011565;28;20753;-71
2022/09/27 00:14:02;;;;;;;0.97;0.83;;;;;;;10.00;100.00;98143.00;5014264;28;20194;-72
2022/09/27 00:16:31;;;;;;;1.00;0.90;;;;;;;9.92;100.00;98146.19;5009798;28;20197;-72
2022/09/27 00:19:01;;;;;;;0.93;0.93;;;;;;;9.95;100.00;98158.78;5010092;28;20274;-71
2022/09/27 00:21:28;;;;;;;1.00;1.00;;;;;;;9.90;100.00;98155.81;5010436;28;20288;-71
2022/09/27 00:23:54;;;;;;;1.57;1.10;;;;;;;9.87;100.00;98161.19;5021740;28;20237;-72
2022/09/27 00:26:19;;;;;;;1.10;1.00;;;;;;;9.82;100.00;98158.19;5009127;28;20210;-72
2022/09/27 00:28:45;;;;;;;1.30;1.20;;;;;;;9.84;100.00;98156.31;5012310;28;20273;-71
2022/09/27 00:31:19;;;;;;;1.80;0.90;;;;;;;9.86;100.00;98159.56;5005739;28;20320;-71
2022/09/27 00:33:45;;;;;;;1.40;0.90;;;;;;;9.94;100.00;98156.34;5018318;28;20687;-72
2022/09/27 00:36:10;;;;;;;0.93;0.93;;;;;;;9.89;100.00;98153.38;5009424;28;20187;-73
2022/09/27 00:38:35;;;;;;;0.80;0.80;;;;;;;9.86;100.00;98151.88;5023631;28;20181;-73
2022/09/27 00:41:01;;;;;;;0.83;0.83;;;;;;;9.84;100.00;98149.41;5012314;28;20229;-73
2022/09/27 00:44:03;;;;;;;1.90;1.23;;;;;;;9.86;100.00;98157.00;5014622;28;20186;-72
2022/09/27 00:46:49;;;;;;;1.30;1.03;;;;;;;9.84;100.00;98151.16;5021139;28;20588;-73
2022/09/27 00:49:41;;;;;;;1.00;0.80;;;;;;;9.82;100.00;98151.31;5030541;28;20507;-73
2022/09/27 00:52:12;;;;;;;1.13;1.00;;;;;;;9.93;100.00;98152.97;5003578;28;20283;-73
2022/09/27 00:54:41;;;;;;;1.40;0.87;;;;;;;9.79;100.00;98145.59;5019959;28;20222;-72
2022/09/27 00:57:07;;;;;;;0.93;0.90;;;;;;;9.83;100.00;98147.78;5018019;28;20677;-72
2022/09/27 00:59:36;;;;;;;2.40;0.90;;;;;;;9.98;100.00;98150.81;5034272;28;20626;-75
2022/09/27 01:02:06;;;;;;;1.83;1.20;;;;;;;9.96;100.00;98150.16;5018076;28;20229;-71
2022/09/27 01:04:32;;;;;;;1.90;0.90;;;;;;;9.96;100.00;98142.44;5026291;28;20264;-72
2022/09/27 01:06:58;;;;;;;1.47;0.93;;;;;;;9.91;100.00;98138.63;5019052;28;20198;-71
2022/09/27 01:09:24;;;;;;;1.67;1.07;;;;;;;9.95;100.00;98140.81;5016798;28;20248;-74
2022/09/27 01:12:43;;;;;;;2.27;0.90;;;;;;;9.90;100.00;98137.00;5011108;28;20224;-72
2022/09/27 01:15:26;;;;;;;2.40;1.10;;;;;;;9.91;100.00;98136.88;4986942;28;20187;-71
2022/09/27 01:18:26;;;;;;;3.97;1.17;;;;;;;9.84;100.00;98138.34;4975918;28;20191;-72
2022/09/27 01:21:23;;;;;;;5.60;1.07;;;;;;;9.87;100.00;98142.41;4982718;28;20309;-71
2022/09/27 01:24:19;;;;;;;2.13;1.30;;;;;;;9.85;100.00;98142.53;4991316;28;20635;-71
2022/09/27 01:27:22;;;;;;;1.17;1.00;;;;;;;9.79;100.00;98138.72;4992297;28;20222;-71
2022/09/27 01:30:24;;;;;;;3.70;1.07;;;;;;;9.93;100.00;98139.31;4974867;28;20203;-71
2022/09/27 01:33:21;;;;;;;4.07;1.10;;;;;;;9.89;100.00;98140.53;4979665;28;20234;-71
2022/09/27 01:36:00;;;;;;;3.00;1.37;;;;;;;9.79;100.00;98128.44;4991698;28;20207;-71
2022/09/27 01:38:41;;;;;;;3.60;1.20;;;;;;;9.79;100.00;98137.91;4989983;28;20618;-72
2022/09/27 01:41:27;;;;;;;1.80;1.30;;;;;;;9.93;100.00;98129.03;4981982;28;20330;-72
2022/09/27 01:44:35;;;;;;;6.00;1.60;;;;;;;9.86;100.00;98133.91;4976774;28;20203;-72
2022/09/27 01:47:06;;;;;;;3.30;1.63;;;;;;;9.92;100.00;98135.13;4984608;28;20242;-72
2022/09/27 01:49:41;;;;;;;4.37;1.80;;;;;;;9.95;100.00;98133.09;5004480;28;20727;-74
2022/09/27 01:52:10;;;;;;;4.10;1.53;;;;;;;9.88;100.00;98129.41;5018403;28;20295;-73
2022/09/27 01:54:46;;;;;;;4.93;2.00;;;;;;;9.86;100.00;98128.75;5015124;28;20178;-73
2022/09/27 01:57:18;;;;;;;5.63;2.10;;;;;;;9.79;100.00;98135.34;5021610;28;20468;-72
2022/09/27 01:59:55;;;;;;;6.30;1.93;;;;;;;9.72;100.00;98126.50;5028431;28;20232;-72
2022/09/27 02:02:25;;;;;;;5.47;2.27;;;;;;;9.69;100.00;98130.16;5029601;28;20292;-72
2022/09/27 02:04:56;;;;;;;7.50;1.80;;;;;;;9.66;100.00;98128.66;5019524;28;20193;-72
2022/09/27 02:07:55;;;;;;;5.23;1.97;;;;;;;9.64;100.00;98124.56;5012629;28;20264;-73
2022/09/27 02:10:23;;;;;;;8.50;2.77;;;;;;;9.74;100.00;98122.88;4992057;28;20578;-73
2022/09/27 02:12:56;;;;;;;5.00;1.70;;;;;;;9.73;100.00;98125.56;5020379;28;20197;-72
2022/09/27 02:15:25;;;;;;;5.60;2.07;;;;;;;9.76;100.00;98122.75;5011405;28;20170;-74
2022/09/27 02:18:09;;;;;;;4.03;1.83;;;;;;;9.60;100.00;98118.88;5027126;28;20194;-72
2022/09/27 02:20:48;;;;;;;2.80;1.57;;;;;;;9.50;100.00;98131.66;5015776;28;20654;-72
2022/09/27 02:23:35;;;;;;;6.43;2.03;;;;;;;9.57;100.00;98124.25;5037558;28;20197;-73
2022/09/27 02:26:13;;;;;;;3.67;1.80;;;;;;;9.66;100.00;98120.94;5003948;28;20238;-72
2022/09/27 02:29:04;;;;;;;7.37;2.33;;;;;;;9.59;100.00;98127.53;5032599;28;20646;-72
2022/09/27 02:31:29;;;;;;;4.77;1.80;;;;;;;9.57;100.00;98131.16;4998690;28;20694;-72
2022/09/27 02:34:01;;;;;;;4.77;1.90;;;;;;;9.45;100.00;98133.78;5026890;28;20273;-73
2022/09/27 02:36:27;;;;;;;6.03;2.20;;;;;;;9.55;100.00;98138.16;5024366;28;20221;-72
2022/09/27 02:38:53;;;;;;;3.40;1.60;;;;;;;9.57;100.00;98136.28;5031426;28;20178;-72
2022/09/27 02:41:21;;;;;;;4.47;1.97;;;;;;;9.55;100.00;98141.56;5014772;28;20229;-72
2022/09/27 02:43:54;;;;;;;3.93;1.57;;;;;;;9.48;100.00;98148.13;5021956;28;20191;-72
2022/09/27 02:46:31;;;;;;;6.00;1.60;;;;;;;9.45;100.00;98166.31;5019112;28;20719;-72
2022/09/27 02:49:29;;;;;;;1.67;1.23;;;;;;;9.56;100.00;98168.81;5020701;28;20183;-72
2022/09/27 02:52:12;;;;;;;1.97;1.10;;;;;;;9.57;100.00;98179.91;4948452;28;20232;-72
2022/09/27 02:54:59;;;;;;;4.63;1.17;;;;;;;9.61;100.00;98184.69;4978360;28;20196;-73
2022/09/27 02:57:42;;;;;;;1.80;1.10;;;;;;;9.64;100.00;98187.00;4957470;28;20218;-74
2022/09/27 03:00:12;;;;;;;1.90;1.20;;;;;;;9.63;100.00;98192.25;4962846;28;20176;-72
2022/09/27 03:02:58;;;;;;;1.27;0.90;;;;;;;9.57;100.00;98192.75;4952172;28;20195;-72
2022/09/27 03:05:26;;;;;;;2.07;0.87;;;;;;;9.59;100.00;98198.56;4952289;28;20230;-73
2022/09/27 03:07:52;;;;;;;1.03;0.90;;;;;;;9.55;100.00;98197.19;4962585;28;20625;-72
2022/09/27 03:10:20;;;;;;;1.90;1.10;;;;;;;9.54;100.00;98201.53;4960358;28;20326;-72
2022/09/27 03:12:46;;;;;;;1.40;0.97;;;;;;;9.58;100.00;98202.88;4967026;28;20666;-72
2022/09/27 03:15:12;;;;;;;2.53;1.10;;;;;;;9.59;100.00;98207.09;4960586;28;20208;-72
2022/09/27 03:17:38;;;;;;;1.27;0.90;;;;;;;9.55;100.00;98202.31;4969976;28;20202;-72
2022/09/27 03:20:04;;;;;;;1.23;1.00;;;;;;;9.52;100.00;98200.81;4943878;28;20196;-72
2022/09/27 03:22:29;;;;;;;2.17;0.90;;;;;;;9.67;100.00;98207.28;4973824;28;20201;-72
2022/09/27 03:24:55;;;;;;;2.40;0.50;;;;;;;9.62;100.00;98206.81;4970376;28;20207;-71
2022/09/27 03:27:20;;;;;;;2.37;0.60;;;;;;;9.53;100.00;98210.16;5001484;28;20214;-72
2022/09/27 03:29:46;;;;;;;0.90;0.60;;;;;;;9.50;100.00;98208.66;5009231;28;20193;-72
2022/09/27 03:32:11;;;;;;;3.40;0.83;;;;;;;9.47;100.00;98208.88;4988071;28;20229;-72
2022/09/27 03:34:37;;;;;;;0.83;0.50;;;;;;;9.41;100.00;98218.84;5024234;28;20194;-72
2022/09/27 03:37:02;;;;;;;0.67;0.50;;;;;;;9.25;100.00;98209.78;5020498;28;20193;-71
2022/09/27 03:39:27;;;;;;;0.57;0.57;;;;;;;9.24;100.00;98218.44;5022870;28;20198;-72
2022/09/27 03:41:53;;;;;;;2.50;0.70;;;;;;;9.14;100.00;98223.47;5007536;28;20226;-73
2022/09/27 03:44:18;;;;;;;0.60;0.40;;;;;;;9.16;100.00;98226.72;5021788;28;20191;-73
2022/09/27 03:46:43;;;;;;;2.13;0.53;;;;;;;9.15;100.00;98216.56;5026908;28;20234;-74
2022/09/27 03:49:08;;;;;;;2.10;0.80;;;;;;;9.16;100.00;98226.72;5025325;28;20210;-73
2022/09/27 03:51:34;;;;;;;0.80;0.50;;;;;;;9.08;100.00;98226.53;5003498;28;20248;-73
2022/09/27 03:53:59;;;;;;;0.70;0.70;;;;;;;9.15;100.00;98219.97;5017706;28;20186;-73
2022/09/27 03:56:25;;;;;;;0.80;0.80;;;;;;;9.04;100.00;98223.38;5022813;28;20276;-73
2022/09/27 03:58:50;;;;;;;0.50;0.50;;;;;;;9.04;100.00;98220.81;5023129;28;20650;-73
2022/09/27 04:01:15;;;;;;;1.97;0.50;;;;;;;9.06;100.00;98222.44;5005463;28;20298;-72
2022/09/27 04:03:41;;;;;;;1.00;0.60;;;;;;;9.07;100.00;98226.63;5011129;28;20646;-72
2022/09/27 04:06:07;;;;;;;0.70;0.50;;;;;;;8.95;100.00;98233.53;5008417;28;20206;-72
2022/09/27 04:08:32;;;;;;;0.60;0.60;;;;;;;8.99;100.00;98228.06;5013452;28;20186;-71
2022/09/27 04:10:57;;;;;;;4.10;0.57;;;;;;;9.09;100.00;98235.00;5014458;28;20260;-72
2022/09/27 04:13:23;;;;;;;0.93;0.40;;;;;;;9.08;100.00;98236.78;5020998;28;20193;-72
2022/09/27 04:15:49;;;;;;;3.60;0.50;;;;;;;9.24;100.00;98233.00;5020662;28;20190;-72
2022/09/27 04:18:14;;;;;;;1.13;0.60;;;;;;;9.12;100.00;98237.34;5016283;28;20558;-72
2022/09/27 04:20:40;;;;;;;0.50;0.50;;;;;;;8.97;100.00;98232.47;5005927;28;20230;-72
2022/09/27 04:23:06;;;;;;;3.03;0.53;;;;;;;9.02;100.00;98237.25;5012535;28;20183;-74
2022/09/27 04:25:31;;;;;;;2.00;0.60;;;;;;;8.97;100.00;98242.72;5008249;28;20187;-70
2022/09/27 04:27:58;;;;;;;1.43;0.73;;;;;;;8.90;100.00;98246.69;5015767;28;20187;-76
2022/09/27 04:30:25;;;;;;;0.73;0.70;;;;;;;8.82;100.00;98242.16;5002233;28;20241;-73
2022/09/27 04:32:50;;;;;;;0.40;0.40;;;;;;;8.75;100.00;98247.91;5023094;28;20241;-75
2022/09/27 04:37:59;;;;;;;0.50;0.50;;;;;;;8.77;100.00;98251.13;5017063;28;20181;-70
2022/09/27 04:40:25;;;;;;;0.50;0.50;;;;;;;8.83;100.00;98256.63;5014047;28;20233;-71
2022/09/27 04:42:50;;;;;;;0.53;0.53;;;;;;;8.78;100.00;98261.31;5014636;28;20185;-72
2022/09/27 04:45:17;;;;;;;1.30;0.60;;;;;;;8.85;100.00;98259.06;5021247;28;20684;-72
2022/09/27 04:47:47;;;;;;;0.67;0.67;;;;;;;8.81;100.00;98260.25;5027201;28;20605;-71
2022/09/27 04:50:14;;;;;;;1.37;0.70;;;;;;;8.84;100.00;98258.25;5006317;28;20613;-71
2022/09/27 04:52:40;;;;;;;1.10;1.00;;;;;;;8.86;100.00;98253.00;5025349;28;20178;-71
2022/09/27 04:55:09;;;;;;;1.17;0.80;;;;;;;8.95;100.00;98256.59;5018706;28;20190;-73
2022/09/27 04:57:35;;;;;;;1.03;0.70;;;;;;;8.80;100.00;98254.28;5015047;28;20589;-70
2022/09/27 05:00:01;;;;;;;2.17;0.70;;;;;;;8.88;100.00;98256.25;5010065;28;20191;-71
2022/09/27 05:02:27;;;;;;;1.77;0.80;;;;;;;8.98;100.00;98259.75;5000354;28;20233;-72
2022/09/27 05:04:58;;;;;;;0.60;0.50;;;;;;;8.98;100.00;98259.75;5012173;28;20189;-74
2022/09/27 05:07:26;;;;;;;5.40;0.80;;;;;;;8.96;100.00;98260.81;5006282;28;20670;-73
2022/09/27 05:09:51;;;;;;;0.80;0.70;;;;;;;8.93;100.00;98264.44;5023149;28;20604;-77
2022/09/27 05:12:17;;;;;;;0.73;0.50;;;;;;;8.77;100.00;98267.34;5000836;28;20245;-73
2022/09/27 05:14:43;;;;;;;0.70;0.70;;;;;;;8.91;100.00;98271.41;5013210;28;20182;-71
2022/09/27 05:17:08;;;;;;;0.50;0.50;;;;;;;8.80;100.00;98264.53;5026126;28;20182;-71
2022/09/27 05:19:34;;;;;;;2.43;0.50;;;;;;;8.69;100.00;98282.50;5019988;28;20198;-72
2022/09/27 05:21:59;;;;;;;0.50;0.50;;;;;;;8.74;100.00;98279.59;5009907;28;20214;-72
2022/09/27 05:24:26;;;;;;;0.60;0.60;;;;;;;8.78;100.00;98278.41;5010303;28;20196;-72
2022/09/27 05:26:52;;;;;;;1.03;0.60;;;;;;;8.74;100.00;98285.50;5013764;28;20606;-71
2022/09/27 05:29:18;;;;;;;0.57;0.57;;;;;;;8.69;100.00;98285.06;5022098;28;20174;-71
2022/09/27 05:31:43;;;;;;;4.33;0.90;;;;;;;8.62;100.00;98289.84;5032178;28;20225;-71
2022/09/27 05:34:11;;;;;;;0.60;0.60;;;;;;;8.66;100.00;98295.56;5033199;28;20208;-71
2022/09/27 05:36:37;;;;;;;0.80;0.50;;;;;;;8.69;100.00;98295.31;5027374;28;20637;-72
2022/09/27 05:39:03;;;;;;;4.30;1.00;;;;;;;8.75;100.00;98304.28;5015169;28;20218;-71
2022/09/27 05:41:28;;;;;;;3.80;0.70;;;;;;;8.85;100.00;98300.91;5019790;28;20704;-71
2022/09/27 05:43:54;;;;;;;2.23;0.97;;;;;;;8.82;100.00;98300.31;5027250;28;20175;-72
2022/09/27 05:46:19;;;;;;;2.83;0.60;;;;;;;8.92;100.00;98311.50;5029228;28;20233;-72
2022/09/27 05:48:45;;;;;;;6.27;0.87;;;;;;;9.01;100.00;98315.13;5019716;28;20179;-71
2022/09/27 05:51:10;;;;;;;1.37;0.63;;;;;;;8.92;100.00;98315.81;5024220;28;20327;-71
2022/09/27 05:53:36;;;;;;;0.60;0.60;;;;;;;8.81;100.00;98316.66;5028102;28;20196;-73
2022/09/27 05:56:03;;;;;;;0.90;0.63;;;;;;;8.76;100.00;98327.25;5022011;28;20277;-72
2022/09/27 05:58:29;;;;;;;0.90;0.50;;;;;;;8.92;100.00;98324.34;5028203;28;20190;-72
2022/09/27 06:00:54;;;;;;;1.67;0.87;;;;;;;9.02;100.00;98324.44;5009765;28;20234;-72
2022/09/27 06:03:19;;;;;;;0.60;0.60;;;;;;;9.08;100.00;98325.72;5041644;28;20685;-72
2022/09/27 06:05:45;;;;;;;0.50;0.50;;;;;;;9.04;100.00;98338.78;5019977;28;20199;-74
2022/09/27 06:08:12;;;;;;;1.27;0.60;;;;;;;9.04;100.00;98345.66;5013653;28;20193;-73
2022/09/27 06:10:39;;;;;;;1.07;0.63;;;;;;;9.19;100.00;98353.91;5013421;28;20313;-74
2022/09/27 06:13:07;;;;;;;1.17;0.67;;;;;;;9.25;100.00;98350.06;5025480;28;20232;-74
2022/09/27 06:15:34;;;;;;;0.60;0.60;;;;;;;9.32;100.00;98346.09;5027474;28;20519;-73
2022/09/27 06:18:05;;;;;;;0.53;0.53;;;;;;;9.33;100.00;98353.69;5012980;28;20569;-73
2022/09/27 06:20:32;;;;;;;1.03;0.60;;;;;;;9.51;100.00;98358.31;4996610;28;20255;-72
2022/09/27 06:23:12;;;;;;;1.27;0.60;;;;;;;9.54;100.00;98358.09;5024978;28;20205;-73
2022/09/27 06:25:39;;;;;;;1.03;0.50;;;;;;;9.61;100.00;98364.38;5009333;28;20656;-72
2022/09/27 06:28:04;;;;;;;0.37;0.37;;;;;;;9.69;100.00;98374.03;5027272;28;20186;-71
2022/09/27 06:30:30;;;;;;;1.67;0.60;;;;;;;9.77;100.00;98370.88;5020435;28;20577;-71
2022/09/27 06:33:00;;;;;;;2.10;0.60;;;;;;;9.98;100.00;98373.47;5028949;28;20787;-73
2022/09/27 06:35:27;;;;;;;1.27;0.60;;;;;;;10.14;100.00;98375.66;5023330;28;20672;-73
2022/09/27 06:37:53;;;;;;;0.50;0.50;;;;;;;10.26;100.00;98384.13;5027933;28;20178;-72
2022/09/27 06:40:19;;;;;;;0.50;0.40;;;;;;;10.27;100.00;98388.31;5014177;28;20181;-73
2022/09/27 06:42:45;;;;;;;0.60;0.60;;;;;;;10.09;100.00;98390.63;5027935;28;20186;-74
2022/09/27 06:45:11;;;;;;;1.17;0.63;;;;;;;9.98;100.00;98392.25;5002622;28;20184;-74
2022/09/27 06:47:37;;;;;;;0.40;0.40;;;;;;;9.99;100.00;98400.81;4997914;28;20605;-74
2022/09/27 06:50:05;;;;;;;2.60;0.80;;;;;;;10.29;100.00;98389.00;4998474;28;20234;-72
2022/09/27 06:52:31;;;;;;;1.27;0.87;;;;;;;10.34;100.00;98404.88;4993606;28;20197;-79
2022/09/27 06:54:56;;;;;;;1.63;0.80;;;;;;;10.26;100.00;98402.91;5009488;28;20240;-74
2022/09/27 07:00:28;;;;;;;0.77;0.50;;;;;;;10.38;100.00;98408.03;4973260;28;20246;-74
2022/09/27 07:02:59;;;;;;;1.73;1.00;;;;;;;10.27;100.00;98411.44;5021655;28;20642;-74
2022/09/27 07:05:26;;;;;;;4.33;0.93;;;;;;;10.16;100.00;98417.47;5010904;28;20666;-74
2022/09/27 07:07:55;;;;;;;8.33;1.07;;;;;;;10.21;100.00;98415.31;5008712;28;20217;-75
2022/09/27 07:10:20;;;;;;;1.00;0.70;;;;;;;10.14;100.00;98424.47;5000767;28;21011;-74
2022/09/27 07:12:48;;;;;;;0.70;0.60;;;;;;;10.34;100.00;98425.44;5011300;28;20207;-75
2022/09/27 07:15:14;;;;;;;0.73;0.50;;;;;;;10.52;100.00;98427.47;5000946;28;20270;-75
2022/09/27 07:17:40;;;;;;;7.00;1.20;;;;;;;10.58;100.00;98434.69;5026041;28;20317;-74
2022/09/27 07:20:06;;;;;;;1.40;0.60;;;;;;;10.68;100.00;98435.59;4995034;28;20193;-73
2022/09/27 07:22:31;;;;;;;1.00;0.70;;;;;;;10.39;100.00;98433.59;5018613;28;20187;-74
2022/09/27 07:24:56;;;;;;;1.53;0.70;;;;;;;10.53;100.00;98436.81;5009938;28;20182;-74
2022/09/27 07:27:24;;;;;;;0.83;0.50;;;;;;;10.72;100.00;98438.72;5017943;28;20206;-74
2022/09/27 07:29:49;;;;;;;4.73;0.80;;;;;;;10.83;100.00;98441.25;5013562;28;20229;-74
2022/09/27 07:32:15;;;;;;;1.57;0.77;;;;;;;11.00;100.00;98434.69;4955607;28;20235;-75
2022/09/27 07:34:40;;;;;;;1.60;0.57;;;;;;;11.16;100.00;98443.72;5011358;28;20183;-75
2022/09/27 07:37:05;;;;;;;1.13;0.60;;;;;;;11.39;100.00;98442.59;5009411;28;20461;-74
2022/09/27 07:39:31;;;;;;;6.37;0.70;;;;;;;11.45;100.00;98444.66;5026089;28;20186;-74
2022/09/27 07:41:57;;;;;;;1.17;0.60;;;;;;;11.18;100.00;98447.78;5013557;28;20240;-76
2022/09/27 07:44:22;;;;;;;1.00;0.57;;;;;;;11.35;100.00;98435.25;5012338;28;20189;-75
2022/09/27 07:46:48;;;;;;;1.33;0.60;;;;;;;11.52;100.00;98439.78;5016640;28;20228;-76
2022/09/27 07:49:13;;;;;;;2.07;0.60;;;;;;;11.69;100.00;98442.69;5013036;28;20638;-75
2022/09/27 07:51:38;;;;;;;3.10;0.97;;;;;;;12.17;100.00;98452.31;5014830;28;20594;-75
2022/09/27 07:54:04;;;;;;;4.47;0.83;;;;;;;12.28;100.00;98451.38;5021669;28;20183;-75
2022/09/27 07:56:30;;;;;;;2.23;0.60;;;;;;;12.39;100.00;98450.41;5012878;28;20193;-75
2022/09/27 07:58:55;;;;;;;1.93;0.90;;;;;;;12.71;98.22;98452.72;5026788;28;20192;-76
2022/09/27 08:01:21;;;;;;;9.73;1.43;;;;;;;13.13;95.84;98450.72;5021419;28;20253;-74
2022/09/27 08:03:46;;;;;;;4.20;0.70;;;;;;;13.93;89.73;98450.22;5016483;28;20201;-76
2022/09/27 08:06:11;;;;;;;5.27;1.20;;;;;;;13.98;83.19;98459.19;5013049;28;20218;-74
2022/09/27 08:08:38;;;;;;;1.80;0.50;;;;;;;13.54;85.52;98459.84;5010458;28;20274;-74
2022/09/27 08:11:14;;;;;;;2.33;0.70;;;;;;;13.63;88.18;98462.50;5007281;28;20225;-74
2022/09/27 08:13:44;;;;;;;1.53;1.00;;;;;;;12.82;89.22;98467.22;5017011;28;20213;-75
2022/09/27 08:16:10;;;;;;;1.03;0.70;;;;;;;12.36;94.25;98469.53;5015990;28;20310;-74
2022/09/27 08:18:36;;;;;;;0.87;0.70;;;;;;;12.04;97.80;98462.06;5008132;28;20179;-74
2022/09/27 08:21:02;;;;;;;1.70;0.70;;;;;;;12.34;95.82;98475.78;5001823;28;20237;-73
2022/09/27 08:23:27;;;;;;;1.23;0.70;;;;;;;12.43;92.77;98472.41;5001954;28;20559;-73
2022/09/27 08:25:53;;;;;;;9.57;1.23;;;;;;;12.69;92.22;98470.09;4999079;28;20213;-74
2022/09/27 08:28:21;;;;;;;7.40;1.10;;;;;;;12.49;91.15;98477.03;5002630;28;20619;-74
2022/09/27 08:30:50;;;;;;;0.90;0.60;;;;;;;12.71;90.99;98480.25;4997141;28;20230;-73
2022/09/27 08:33:15;;;;;;;3.33;0.80;;;;;;;12.53;92.81;98486.09;5008194;28;20221;-74
2022/09/27 08:35:41;;;;;;;1.23;0.70;;;;;;;12.80;92.07;98491.53;4997932;28;20556;-76
2022/09/27 08:38:06;;;;;;;3.97;0.70;;;;;;;12.68;93.13;98488.28;4998790;28;20191;-75
2022/09/27 08:41:00;;;;;;;2.47;0.77;;;;;;;12.59;90.69;98495.88;4988748;28;20694;-73
2022/09/27 08:43:40;;;;;;;0.70;0.50;;;;;;;12.53;91.59;98485.31;5006337;28;20190;-75
2022/09/27 08:46:19;;;;;;;1.90;0.70;;;;;;;12.42;91.02;98493.97;5007770;28;20714;-75
2022/09/27 08:48:51;;;;;;;7.90;1.03;;;;;;;12.47;94.55;98493.59;5011574;28;20182;-70
2022/09/27 08:51:28;;;;;;;3.37;0.80;;;;;;;12.73;94.42;98494.66;5006484;28;20283;-62
2022/09/27 08:54:06;;;;;;;1.60;0.80;;;;;;;12.90;89.50;98494.91;5013639;28;20190;-62
2022/09/27 08:56:32;;;;;;;3.77;0.70;;;;;;;13.46;85.55;98488.16;5014841;28;20186;-64
2022/09/27 09:23:09;;;;;;;0.30;0.30;;;;;;;15.72;62.88;98500.09;5000692;28;20221;-61
2022/09/27 09:26:12;;;;;;;0.40;0.40;;;;;;;14.58;67.00;98504.34;5009472;28;20186;-61
2022/09/27 09:28:52;;;;;;;1.80;0.70;;;;;;;14.24;70.01;98501.59;5014576;28;20186;-62
2022/09/27 09:31:39;;;;;;;1.00;0.60;;;;;;;14.10;71.52;98498.56;5013361;28;20628;-63
2022/09/27 09:34:14;;;;;;;1.13;0.60;;;;;;;14.05;74.80;98493.00;5016542;28;20654;-62
2022/09/27 09:36:51;;;;;;;5.70;1.03;;;;;;;14.97;65.80;98493.69;5011858;28;20189;-62
2022/09/27 09:39:23;;;;;;;4.63;0.77;;;;;;;14.87;68.02;98494.75;5025834;28;20182;-62
2022/09/27 09:42:05;;;;;;;1.90;0.67;;;;;;;15.11;64.41;98505.28;5027441;28;20700;-62
2022/09/27 09:44:40;;;;;;;1.20;0.73;;;;;;;16.08;59.46;98501.69;5024682;28;20187;-62
2022/09/27 09:47:34;;;;;;;13.33;2.10;;;;;;;15.88;59.76;98501.97;5009868;28;20258;-61
2022/09/27 09:50:04;;;;;;;0.50;0.40;;;;;;;15.96;60.77;98501.16;5008222;28;20260;-61
2022/09/27 09:52:45;;;;;;;0.63;0.43;;;;;;;15.64;60.88;98498.28;4986258;28;20218;-62
2022/09/27 09:55:38;;;;;;;7.97;0.90;;;;;;;15.20;62.44;98502.75;5008446;28;20241;-61
2022/09/27 09:58:09;;;;;;;0.50;0.50;;;;;;;15.17;63.84;98498.69;5009033;28;20186;-62
2022/09/27 10:00:37;;;;;;;0.77;0.53;;;;;;;15.10;66.40;98490.69;5002946;28;20241;-61
2022/09/27 10:03:03;;;;;;;0.60;0.40;;;;;;;14.63;66.84;98494.38;5013549;28;20233;-62
2022/09/27 10:05:29;;;;;;;1.27;0.57;;;;;;;14.48;68.91;98488.91;5011647;28;20635;-62
2022/09/27 10:07:58;;;;;;;3.23;0.70;;;;;;;14.21;71.47;98492.38;5011744;28;20206;-61
2022/09/27 10:10:24;;;;;;;0.33;0.33;;;;;;;14.06;72.07;98488.69;5004224;28;20237;-61
2022/09/27 10:12:50;;;;;;;2.90;0.50;;;;;;;13.87;73.77;98503.34;5020854;28;20209;-62
2022/09/27 10:15:20;;;;;;;2.67;0.60;;;;;;;13.83;74.52;98499.38;5012736;28;20183;-62
2022/09/27 10:17:52;;;;;;;0.60;0.40;;;;;;;13.74;76.67;98495.09;5014015;28;20658;-61
2022/09/27 10:20:42;;;;;;;0.83;0.40;;;;;;;13.52;77.66;98490.16;5002643;28;20273;-74
2022/09/27 10:23:20;;;;;;;0.33;0.30;;;;;;;13.21;78.06;98494.72;5005955;28;20187;-76
2022/09/27 10:25:48;;;;;;;0.40;0.40;;;;;;;13.13;80.63;98492.81;5013005;28;20638;-76
2022/09/27 10:28:38;;;;;;;1.93;0.70;;;;;;;13.12;79.94;98493.78;5012875;28;20190;-76
2022/09/27 10:31:05;;;;;;;0.40;0.40;;;;;;;13.42;78.20;98481.66;5015725;28;20225;-76
2022/09/27 10:33:32;;;;;;;3.10;0.50;;;;;;;14.11;74.97;98476.13;5022240;28;20210;-77
2022/09/27 10:35:59;;;;;;;0.40;0.40;;;;;;;14.48;68.84;98482.94;5012266;28;20269;-72
2022/09/27 10:38:30;;;;;;;0.60;0.60;;;;;;;14.97;68.04;98475.56;5017649;28;20640;-76
2022/09/27 10:41:15;;;;;;;2.10;0.93;;;;;;;14.85;63.62;98479.38;5004224;28;20264;-76
2022/09/27 10:43:40;;;;;;;1.80;0.93;;;;;;;14.72;62.11;98473.78;5023658;28;20233;-77
2022/09/27 10:46:17;;;;;;;0.73;0.60;;;;;;;14.20;66.77;98477.81;5014899;28;20231;-74
2022/09/27 10:48:43;;;;;;;0.70;0.70;;;;;;;13.91;66.89;98475.44;5029116;28;20542;-75
2022/09/27 10:51:30;;;;;;;1.30;0.90;;;;;;;13.73;68.27;98473.63;5007378;28;20238;-76
2022/09/27 10:53:59;;;;;;;1.20;0.50;;;;;;;13.71;69.40;98468.56;5017615;28;20185;-74
2022/09/27 10:56:32;;;;;;;0.60;0.60;;;;;;;13.60;71.15;98471.34;5012148;28;20186;-76
2022/09/27 10:58:59;;;;;;;1.57;0.67;;;;;;;13.64;70.28;98475.28;5013866;28;20270;-77
2022/09/27 11:01:26;;;;;;;1.83;0.70;;;;;;;13.81;71.40;98465.16;4985403;28;20253;-76
2022/09/27 11:03:58;;;;;;;0.73;0.67;;;;;;;13.69;72.20;98462.75;5016195;28;20179;-75
2022/09/27 11:06:23;;;;;;;2.20;0.90;;;;;;;13.87;71.72;98461.97;5014412;28;20662;-77
2022/09/27 11:08:51;;;;;;;1.40;0.77;;;;;;;14.14;70.88;98465.47;5011834;28;20211;-76
2022/09/27 11:11:19;;;;;;;3.17;0.87;;;;;;;14.39;69.78;98456.19;5018350;28;20226;-76
2022/09/27 11:14:06;;;;;;;3.50;1.10;;;;;;;14.00;71.07;98459.88;5018794;28;20310;-76
2022/09/27 11:16:41;;;;;;;1.83;0.70;;;;;;;14.24;72.07;98457.66;5013379;28;20225;-77
2022/09/27 11:19:34;;;;;;;0.90;0.70;;;;;;;14.72;69.24;98459.03;5012538;28;20201;-76
2022/09/27 11:22:25;;;;;;;5.47;1.03;;;;;;;14.73;68.56;98457.28;5002840;28;20738;-77
2022/09/27 11:25:29;;;;;;;2.23;1.27;;;;;;;14.84;67.61;98460.44;5012205;28;20225;-75
2022/09/27 11:28:26;;;;;;;1.97;0.80;;;;;;;14.89;66.41;98452.22;5012881;28;20228;-77
2022/09/27 11:31:02;;;;;;;2.33;0.70;;;;;;;14.88;64.92;98452.38;4978766;28;20238;-76
2022/09/27 11:33:49;;;;;;;2.80;1.00;;;;;;;15.00;65.56;98454.53;5011771;28;20206;-77
2022/09/27 11:36:34;;;;;;;0.60;0.60;;;;;;;15.03;62.46;98448.25;5006635;28;20709;-77
2022/09/27 11:39:19;;;;;;;2.37;1.07;;;;;;;15.01;62.50;98451.00;5014638;28;20265;-77
2022/09/27 11:42:22;;;;;;;0.87;0.80;;;;;;;14.67;64.85;98448.34;5032430;28;20224;-77
2022/09/27 11:45:09;;;;;;;4.50;1.40;;;;;;;15.02;66.24;98444.06;4999689;28;20213;-77
2022/09/27 11:48:03;;;;;;;1.30;0.70;;;;;;;14.75;63.75;98445.81;5011830;28;20242;-77
2022/09/27 11:50:31;;;;;;;6.83;1.20;;;;;;;14.53;64.21;98434.13;5011758;28;20226;-76
2022/09/27 11:53:00;;;;;;;2.43;1.10;;;;;;;14.52;64.60;98443.69;5037733;28;20265;-76
2022/09/27 11:55:32;;;;;;;1.10;0.60;;;;;;;14.49;68.12;98430.22;5007942;28;20190;-77
2022/09/27 11:58:28;;;;;;;5.13;1.03;;;;;;;14.79;68.43;98423.03;5018715;28;20196;-76
2022/09/27 12:00:56;;;;;;;5.80;1.10;;;;;;;14.66;67.22;98424.25;5023749;28;20311;-76
2022/09/27 12:03:42;;;;;;;8.93;1.47;;;;;;;14.68;65.99;98421.50;5016803;28;20200;-77
2022/09/27 12:06:12;;;;;;;1.60;1.07;;;;;;;14.67;61.97;98423.28;5018235;28;20179;-77
2022/09/27 12:08:46;;;;;;;2.27;1.00;;;;;;;14.55;62.63;98428.81;5011466;28;20344;-77
2022/09/27 12:11:41;;;;;;;2.97;0.83;;;;;;;14.65;61.50;98419.22;5017712;28;20673;-76
2022/09/27 12:14:32;;;;;;;2.40;0.90;;;;;;;14.95;59.25;98420.53;5013494;28;20191;-76
2022/09/27 12:16:58;;;;;;;2.17;1.00;;;;;;;15.05;59.70;98420.44;5016918;28;20220;-76
2022/09/27 12:19:42;;;;;;;1.20;0.80;;;;;;;14.96;59.71;98426.53;5017712;28;20179;-77
2022/09/27 12:22:13;;;;;;;1.40;0.90;;;;;;;14.88;61.07;98423.91;5017454;28;20240;-77
2022/09/27 12:24:39;;;;;;;3.10;1.10;;;;;;;14.93;61.37;98424.25;5021833;28;20214;-77